Time;durP1;ratioP1;P1;durP2;ratioP2;P2;SDS_P1;SDS_P2;PMS_P1;PMS_P2;Temp;Humidity;BMP_temperature;BMP_pressure;BME280_temperature;BME280_humidity;BME280_pressure;Samples;Min_cycle;Max_cycle;Signal;HPM_P1;HPM_P2
2024/01/22 00:05:50;;;;;;;11.57;8.25;;;7.10;73.50;;;;;;20925018;28;20037;-59
2024/01/22 00:15:51;;;;;;;11.95;9.25;;;7.00;73.70;;;;;;20924394;28;20029;-59
2024/01/22 00:25:51;;;;;;;16.02;12.05;;;7.00;74.00;;;;;;20923062;28;20037;-60
2024/01/22 00:35:52;;;;;;;11.15;8.75;;;6.90;74.20;;;;;;20922643;28;20035;-59
2024/01/22 00:45:54;;;;;;;12.35;9.73;;;6.80;74.20;;;;;;20921207;28;20044;-59
2024/01/22 00:55:55;;;;;;;10.18;7.82;;;6.80;74.30;;;;;;20920041;28;20029;-60
2024/01/22 01:05:56;;;;;;;12.30;9.00;;;6.70;74.30;;;;;;20919090;28;20025;-59
2024/01/22 01:15:57;;;;;;;11.15;8.23;;;6.70;74.40;;;;;;20919793;28;20157;-59
2024/01/22 01:25:58;;;;;;;11.52;8.48;;;6.50;73.80;;;;;;20918687;28;20036;-59
2024/01/22 01:35:59;;;;;;;14.18;9.77;;;6.30;74.00;;;;;;20918216;28;20017;-59
2024/01/22 01:46:00;;;;;;;12.48;9.57;;;6.30;74.10;;;;;;20916796;28;20045;-58
2024/01/22 01:56:01;;;;;;;14.05;9.52;;;6.20;74.20;;;;;;20915897;28;20029;-60
2024/01/22 02:06:02;;;;;;;13.30;10.48;;;6.20;74.50;;;;;;20915682;28;20478;-59
2024/01/22 02:16:03;;;;;;;12.88;10.23;;;6.10;74.50;;;;;;20913788;28;20065;-60
2024/01/22 02:26:04;;;;;;;12.45;9.85;;;6.10;74.30;;;;;;20913442;28;20124;-60
2024/01/22 02:36:05;;;;;;;13.23;9.75;;;6.20;74.00;;;;;;20912811;28;20052;-59
2024/01/22 02:46:06;;;;;;;12.38;9.48;;;6.10;74.20;;;;;;20912335;28;20041;-58
2024/01/22 02:56:07;;;;;;;12.95;10.13;;;6.00;74.20;;;;;;20912226;28;20029;-59
2024/01/22 03:06:08;;;;;;;11.77;8.63;;;6.00;74.30;;;;;;20912834;28;20108;-59
2024/01/22 03:16:09;;;;;;;14.05;10.50;;;5.90;74.20;;;;;;20926708;28;20115;-59
2024/01/22 03:26:21;;;;;;;13.15;9.75;;;5.80;74.10;;;;;;20926965;28;20029;-60
2024/01/22 03:36:22;;;;;;;11.07;8.77;;;5.80;74.10;;;;;;20926338;28;20021;-59
2024/01/22 03:46:23;;;;;;;11.32;9.07;;;5.80;73.80;;;;;;20926661;28;20051;-59
2024/01/22 03:56:24;;;;;;;14.73;10.85;;;5.60;73.80;;;;;;20926232;28;20049;-59
2024/01/22 04:06:25;;;;;;;11.73;10.50;;;5.50;73.30;;;;;;20923495;28;20132;-58
2024/01/22 04:16:26;;;;;;;13.25;10.00;;;5.30;73.90;;;;;;20922473;28;20509;-58
2024/01/22 04:26:27;;;;;;;13.93;10.60;;;5.30;74.30;;;;;;20922799;28;20041;-59
2024/01/22 04:36:28;;;;;;;14.40;11.25;;;5.20;74.90;;;;;;20922072;28;20393;-58
2024/01/22 04:46:29;;;;;;;16.85;11.73;;;5.20;74.90;;;;;;20920851;28;20167;-59
2024/01/22 04:56:30;;;;;;;14.45;11.20;;;5.30;75.00;;;;;;20920558;28;20052;-58
2024/01/22 05:06:31;;;;;;;17.38;12.23;;;5.20;75.20;;;;;;20919181;28;20033;-59
2024/01/22 05:16:33;;;;;;;16.55;11.75;;;5.30;75.10;;;;;;20919966;28;20505;-60
2024/01/22 05:26:34;;;;;;;17.02;12.65;;;5.40;74.70;;;;;;20918930;28;20033;-58
2024/01/22 05:36:37;;;;;;;14.73;11.40;;;5.20;74.20;;;;;;20918257;28;20049;-59
2024/01/22 05:46:38;;;;;;;15.48;11.15;;;5.20;74.20;;;;;;20917688;28;20045;-60
2024/01/22 05:56:39;;;;;;;15.50;11.50;;;5.10;74.40;;;;;;20917395;28;20047;-59
2024/01/22 06:06:41;;;;;;;14.55;11.52;;;5.00;74.70;;;;;;20914168;28;20040;-59
2024/01/22 06:16:42;;;;;;;16.50;12.75;;;5.00;74.80;;;;;;20914394;28;20028;-60
2024/01/22 06:26:43;;;;;;;18.15;12.50;;;5.00;74.90;;;;;;20914782;28;20120;-58
2024/01/22 06:36:43;;;;;;;14.88;11.40;;;5.20;74.90;;;;;;20913158;28;20048;-60
2024/01/22 06:46:44;;;;;;;16.98;11.57;;;5.20;74.80;;;;;;20927420;28;20056;-58
2024/01/22 06:56:46;;;;;;;16.10;12.85;;;5.10;74.70;;;;;;20995465;28;20032;-59
2024/01/22 07:06:47;;;;;;;15.45;11.20;;;5.10;74.00;;;;;;20995261;28;20482;-58
2024/01/22 07:16:48;;;;;;;17.10;12.80;;;5.00;74.20;;;;;;20994804;28;20028;-60
2024/01/22 07:26:49;;;;;;;18.58;12.68;;;5.00;74.50;;;;;;20994773;28;20038;-59
2024/01/22 07:36:50;;;;;;;16.42;13.00;;;5.20;74.60;;;;;;20992339;28;20194;-59
2024/01/22 07:46:51;;;;;;;19.30;12.77;;;5.30;74.50;;;;;;20995008;28;20091;-59
2024/01/22 07:56:52;;;;;;;19.88;14.68;;;5.50;74.60;;;;;;20998726;28;20112;-59
2024/01/22 08:06:53;;;;;;;20.38;14.30;;;5.60;74.40;;;;;;21005169;28;20060;-60
2024/01/22 08:16:55;;;;;;;21.55;16.25;;;5.70;74.30;;;;;;21005143;28;20473;-59
2024/01/22 08:26:56;;;;;;;25.27;15.07;;;6.00;73.90;;;;;;21004208;28;20044;-59
2024/01/22 08:36:57;;;;;;;19.77;14.52;;;6.40;74.00;;;;;;21003424;28;20025;-60
2024/01/22 08:46:58;;;;;;;17.83;12.25;;;6.30;72.80;;;;;;21003444;28;20533;-60
2024/01/22 08:56:59;;;;;;;20.35;15.52;;;6.40;72.60;;;;;;21002492;28;20044;-59
2024/01/22 09:07:00;;;;;;;29.30;21.30;;;6.50;72.40;;;;;;21002196;28;20032;-58
2024/01/22 09:17:01;;;;;;;28.83;21.05;;;6.80;73.20;;;;;;21001728;28;20024;-58
2024/01/22 09:27:21;;;;;;;56.70;32.00;;;7.00;73.40;;;;;;21000340;28;20044;-59
2024/01/22 09:37:21;;;;;;;32.55;23.15;;;7.10;73.80;;;;;;20999469;28;20091;-59
2024/01/22 09:47:23;;;;;;;32.88;21.98;;;7.20;73.90;;;;;;20997872;28;20044;-60
2024/01/22 09:57:26;;;;;;;35.97;22.65;;;7.40;74.70;;;;;;20998056;28;20028;-60
2024/01/22 10:07:27;;;;;;;36.28;24.98;;;7.50;75.20;;;;;;20997590;28;20075;-59
2024/01/22 10:17:28;;;;;;;36.30;25.02;;;7.60;75.40;;;;;;20994939;28;20028;-58
2024/01/22 10:27:29;;;;;;;37.50;24.52;;;7.80;74.50;;;;;;20996045;28;20033;-59
2024/01/22 10:37:31;;;;;;;64.78;42.28;;;7.90;74.10;;;;;;20994351;28;20032;-59
2024/01/22 10:47:33;;;;;;;30.70;21.75;;;8.00;73.90;;;;;;20994127;28;20053;-60
2024/01/22 10:57:41;;;;;;;34.55;23.33;;;8.20;73.80;;;;;;20993921;28;20032;-60
2024/01/22 11:07:44;;;;;;;31.27;23.08;;;8.30;73.70;;;;;;20994492;28;20486;-60
2024/01/22 11:17:47;;;;;;;35.70;25.08;;;8.50;73.20;;;;;;20994168;28;20507;-59
2024/01/22 11:27:48;;;;;;;33.75;22.70;;;8.60;73.00;;;;;;20993832;28;20110;-60
2024/01/22 11:37:49;;;;;;;33.05;23.80;;;8.70;72.70;;;;;;21008772;28;20020;-58
2024/01/22 11:47:50;;;;;;;33.03;23.00;;;8.90;72.00;;;;;;21006504;28;20094;-59
2024/01/22 11:57:51;;;;;;;34.47;23.63;;;9.10;71.40;;;;;;21005883;28;20033;-59
2024/01/22 12:07:52;;;;;;;32.95;24.27;;;9.30;71.60;;;;;;21006601;28;20041;-58
2024/01/22 12:17:53;;;;;;;33.67;24.48;;;9.30;70.90;;;;;;21004842;28;20055;-59
2024/01/22 12:28:08;;;;;;;33.70;25.77;;;9.60;70.80;;;;;;21005372;28;20115;-58
2024/01/22 12:38:11;;;;;;;31.33;24.70;;;9.80;69.90;;;;;;21003450;28;20024;-58
2024/01/22 12:48:12;;;;;;;35.50;26.55;;;10.10;68.90;;;;;;21002420;28;20056;-57
2024/01/22 12:58:13;;;;;;;39.45;26.95;;;10.10;68.50;;;;;;21001743;28;20120;-59
2024/01/22 13:08:14;;;;;;;37.00;27.45;;;10.30;68.10;;;;;;21001087;28;20462;-57
2024/01/22 13:18:15;;;;;;;37.05;27.42;;;10.30;68.10;;;;;;21001004;28;20111;-57
2024/01/22 13:28:16;;;;;;;42.58;29.60;;;10.40;68.30;;;;;;21000118;28;20052;-58
2024/01/22 13:38:17;;;;;;;41.28;30.92;;;10.50;68.00;;;;;;20999140;28;20032;-57
2024/01/22 13:48:18;;;;;;;37.78;29.70;;;10.70;68.00;;;;;;20997945;28;20174;-57
2024/01/22 13:58:20;;;;;;;41.72;32.90;;;10.70;67.60;;;;;;20996082;28;20108;-58
2024/01/22 14:08:21;;;;;;;41.42;32.45;;;10.60;68.30;;;;;;20997416;28;20477;-57
2024/01/22 14:18:24;;;;;;;40.72;30.92;;;10.70;68.60;;;;;;20996843;28;20501;-59
2024/01/22 14:28:25;;;;;;;41.95;29.73;;;10.70;69.00;;;;;;20996503;28;20040;-58
2024/01/22 14:38:26;;;;;;;42.15;33.17;;;10.90;68.90;;;;;;20994498;28;20130;-57
2024/01/22 14:48:31;;;;;;;44.17;33.65;;;11.10;68.50;;;;;;20994155;28;20506;-58
2024/01/22 14:58:31;;;;;;;;;;;11.20;67.90;;;;;;20994264;28;20481;-57
2024/01/22 15:08:32;;;;;;;46.42;32.22;;;11.20;67.50;;;;;;21004640;28;19912;-57
2024/01/22 15:18:34;;;;;;;40.20;30.77;;;11.20;67.80;;;;;;21008551;28;20099;-58
2024/01/22 15:28:35;;;;;;;47.03;32.90;;;11.20;67.80;;;;;;21008583;28;20069;-57
2024/01/22 15:38:36;;;;;;;32.35;24.23;;;11.30;67.80;;;;;;21007696;28;20055;-54
2024/01/22 15:48:37;;;;;;;31.30;23.98;;;12.40;64.90;;;;;;21006720;28;20095;-57
2024/01/22 15:58:38;;;;;;;39.38;26.35;;;12.00;65.70;;;;;;21007219;28;20066;-53
2024/01/22 16:08:42;;;;;;;35.30;25.40;;;11.80;67.00;;;;;;21007211;28;20043;-56
2024/01/22 16:18:43;;;;;;;37.00;23.10;;;11.70;67.80;;;;;;21004990;28;20029;-56
2024/01/22 16:28:46;;;;;;;25.75;20.25;;;11.80;68.20;;;;;;21005184;28;20143;-54
2024/01/22 16:38:50;;;;;;;25.05;18.58;;;11.80;68.80;;;;;;21005109;28;20034;-56
2024/01/22 16:48:51;;;;;;;23.08;17.33;;;11.70;69.20;;;;;;21003287;28;20586;-55
2024/01/22 16:58:52;;;;;;;25.27;17.38;;;11.80;69.50;;;;;;20997107;28;20116;-55
2024/01/22 17:08:53;;;;;;;25.67;16.98;;;11.70;70.00;;;;;;21001124;28;20064;-56
2024/01/22 17:18:54;;;;;;;26.00;17.60;;;12.20;69.80;;;;;;21000880;28;20034;-55
2024/01/22 17:28:55;;;;;;;54.95;36.97;;;11.80;70.30;;;;;;20998837;28;20135;-56
2024/01/22 17:38:58;;;;;;;52.90;36.90;;;11.70;69.20;;;;;;20998199;28;20123;-56
2024/01/22 17:48:59;;;;;;;50.45;35.13;;;11.40;69.10;;;;;;20998099;28;20401;-56
2024/01/22 17:59:02;;;;;;;49.00;36.05;;;11.30;69.30;;;;;;20996984;28;20028;-57
2024/01/22 18:09:05;;;;;;;52.60;35.30;;;11.20;69.40;;;;;;20996615;28;20032;-55
2024/01/22 18:19:07;;;;;;;50.13;35.95;;;11.60;69.70;;;;;;20995429;28;20083;-55
2024/01/22 18:29:08;;;;;;;49.47;35.78;;;11.20;69.60;;;;;;20996119;28;20071;-54
2024/01/22 18:39:12;;;;;;;47.38;34.13;;;11.00;69.90;;;;;;20994674;28;20025;-57
2024/01/22 18:49:13;;;;;;;43.53;29.73;;;10.80;70.70;;;;;;20993572;28;20056;-58
2024/01/22 18:59:16;;;;;;;39.42;28.85;;;10.50;71.90;;;;;;20992929;28;20048;-57
2024/01/22 19:09:18;;;;;;;46.15;29.83;;;10.20;73.20;;;;;;20994101;28;20037;-57
2024/01/22 19:19:22;;;;;;;42.28;29.65;;;10.20;73.40;;;;;;20992801;28;20060;-57
2024/01/22 19:29:23;;;;;;;40.72;27.35;;;10.00;73.10;;;;;;20992756;28;20110;-57
2024/01/22 19:39:25;;;;;;;43.20;29.52;;;9.70;73.50;;;;;;20993112;28;20055;-58
2024/01/22 19:49:26;;;;;;;47.22;31.25;;;9.60;73.60;;;;;;20991927;28;20048;-57
2024/01/22 19:59:29;;;;;;;43.67;30.17;;;9.50;74.00;;;;;;21005662;28;20051;-58
2024/01/22 20:09:31;;;;;;;46.22;31.83;;;9.40;74.20;;;;;;21005465;28;20039;-58
2024/01/22 20:19:32;;;;;;;49.50;34.67;;;9.40;74.30;;;;;;21007175;28;20139;-58
2024/01/22 20:29:33;;;;;;;52.08;35.35;;;9.50;74.30;;;;;;21004686;28;20040;-60
2024/01/22 20:39:34;;;;;;;54.03;36.00;;;9.40;74.50;;;;;;21002524;28;20108;-58
2024/01/22 20:49:35;;;;;;;53.65;37.60;;;9.50;74.60;;;;;;21002677;28;20071;-57
2024/01/22 20:59:38;;;;;;;54.55;38.13;;;9.50;74.60;;;;;;21002707;28;20044;-58
2024/01/22 21:09:39;;;;;;;57.67;36.10;;;9.60;74.50;;;;;;21000864;28;20039;-58
2024/01/22 21:19:40;;;;;;;64.93;39.10;;;9.60;74.50;;;;;;21001494;28;20048;-58
2024/01/22 21:29:41;;;;;;;53.97;37.38;;;9.40;75.10;;;;;;20999215;28;20087;-58
2024/01/22 21:39:42;;;;;;;66.82;41.67;;;9.20;75.50;;;;;;20999675;28;20028;-58
2024/01/22 21:49:43;;;;;;;52.42;34.95;;;9.10;75.70;;;;;;20997837;28;20135;-58
2024/01/22 21:59:47;;;;;;;49.40;33.60;;;9.00;75.90;;;;;;20998778;28;20032;-59
2024/01/22 22:09:48;;;;;;;56.45;38.80;;;9.10;75.90;;;;;;20996774;28;20032;-59
2024/01/22 22:19:49;;;;;;;62.55;38.90;;;9.00;76.00;;;;;;20996983;28;20086;-58
2024/01/22 22:29:50;;;;;;;53.30;33.42;;;8.80;76.20;;;;;;20996957;28;20028;-58
2024/01/22 22:39:51;;;;;;;45.85;31.08;;;8.70;76.20;;;;;;20996546;28;20059;-58
2024/01/22 22:49:52;;;;;;;42.90;28.33;;;8.50;75.80;;;;;;20994991;28;20045;-59
2024/01/22 22:59:55;;;;;;;45.38;29.42;;;8.30;76.20;;;;;;20995531;28;20108;-58
2024/01/22 23:09:56;;;;;;;47.17;31.33;;;8.20;76.40;;;;;;20994987;28;20075;-59
2024/01/22 23:19:57;;;;;;;52.35;31.23;;;8.10;76.50;;;;;;20994578;28;20036;-60
2024/01/22 23:29:58;;;;;;;49.90;30.85;;;8.00;76.80;;;;;;21005787;28;20086;-58
2024/01/22 23:39:59;;;;;;;54.40;32.63;;;8.00;76.90;;;;;;21008808;28;20040;-60
2024/01/22 23:50:00;;;;;;;46.70;29.25;;;7.90;76.80;;;;;;21007690;28;20052;-58
